Flight Track Log - Related Links

Times and Time Zones

All times are in EDT time to prevent confusion due to time zone crossing. See the EJA951 flight status page for this flight to view local times or setup timezone preferences in your user account.

Time Position Orientation Groundspeed Altitude Reporting Facility
EDT Latitude Longitude Course Direction KTS MPH feet Rate Location/Type
Fri 06:49:10 PM 40.8167 -73.3833 27° Northeast 209 241 4,900  Level New York TRACON
Fri 06:51:15 PM 40.9611 -73.3197 18° North 278 320 10,300 2,108 Climbing Boston Center
Fri 06:52:15 PM 41.0569 -73.3319 355° North 303 349 11,400 843 Climbing Boston Center
Fri 06:53:16 PM 41.1650 -73.3664 347° North 376 433 12,000 298 Climbing Boston Center
Fri 06:54:16 PM 41.2694 -73.3128 21° North 379 436 12,000 645 Level Boston Center
Fri 06:55:17 PM 41.3494 -73.2117 43° Northeast 385 443 13,300 1,636 Climbing Boston Center
Fri 06:56:17 PM 41.3878 -73.0903 67° East 377 434 15,300 1,714 Climbing Boston Center
Fri 06:57:16 PM 41.4072 -72.9244 81° East 395 455 16,700 857 Climbing Boston Center
Fri 06:58:16 PM 41.4203 -72.7917 82° East 409 471 17,000 150 Climbing Boston Center
Fri 06:59:16 PM 41.4333 -72.6478 83° East 379 436 17,000  Level Boston Center
Fri 07:00:17 PM 41.4458 -72.5314 82° East 352 405 17,000  Level Boston Center
Fri 07:01:17 PM 41.4292 -72.3931 99° East 342 394 17,000  Level Boston Center
Fri 07:02:16 PM 41.3978 -72.2714 109° East 352 405 17,000  Level Boston Center
Fri 07:03:16 PM 41.3892 -72.1578 96° East 333 383 17,000  Level Boston Center
Fri 07:04:16 PM 41.4767 -72.1269 15° North 258 297 17,000  Level Boston Center
Fri 07:05:17 PM 41.5247 -72.2044 310° West 252 290 17,000  Level Boston Center
Fri 07:06:18 PM 41.5814 -72.2931 311° West 304 350 17,000  Level Boston Center
Fri 07:07:15 PM 41.5564 -72.3819 249° West 237 273 17,000 -359 Level Boston Center
Fri 07:08:15 PM 41.4958 -72.3208 143° Southeast 232 267 16,300 -942 Descending Boston Center
Fri 07:09:16 PM 41.4539 -72.2186 119° Southeast 261 300 15,100 -1,289 Descending Boston Center
Fri 07:10:16 PM 41.4058 -72.1108 121° Southeast 305 351 13,700 -1,041 Descending Boston Center
Fri 07:11:17 PM 41.3700 -72.0197 118° Southeast 310 357 13,000 -403 Descending Boston Center
Fri 07:12:15 PM 41.4050 -71.9058 68° East 292 336 12,900 -706 Descending Boston Center
Fri 07:13:16 PM 41.4589 -71.8253 48° Northeast 301 346 11,600 -942 Descending Boston Center
Fri 07:14:16 PM 41.5228 -71.7331 47° Northeast 308 354 11,000 -300 Descending Boston Center
Fri 07:15:16 PM 41.5744 -71.6519 50° Northeast 308 354 11,000  Level Boston Center
Fri 07:16:17 PM 41.6383 -71.5594 47° Northeast 314 361 11,000  Level Boston Center
Fri 07:17:18 PM 41.6981 -71.4697 48° Northeast 319 367 11,000  Level Boston Center
Fri 07:18:15 PM 41.7517 -71.3939 47° Northeast 319 367 11,000  Level Boston Center
Fri 07:19:15 PM 41.8194 -71.2981 46° Northeast 314 361 11,000 -545 Level Boston Center
Fri 07:20:16 PM 41.8833 -71.2383 35° Northeast 309 356 9,900 -793 Descending Boston Center
Fri 07:21:16 PM 41.9664 -71.1947 21° North 289 333 9,400 -942 Descending Boston Center
Fri 07:22:17 PM 42.0244 -71.1686 18° North 262 302 8,000 -1,563 Descending Boston Center
Fri 07:23:15 PM 42.0969 -71.1333 20° North 252 290 6,300 -1,412 Descending Boston Center
Fri 07:24:16 PM 42.1508 -71.1044 22° Northeast 244 281 5,200 -1,328 Descending Boston Center
Fri 07:25:17 PM 42.2131 -71.0778 18° North 217 250 3,600 -1,513 Descending Boston Center
Fri 07:26:15 PM 42.2564 -71.0572 19° North 193 222 2,200 -1,210 Descending Boston Center
Fri 07:27:16 PM 42.2978 -71.0339 23° Northeast 179 206 1,200 -836 Descending Boston Center
Fri 07:28:17 PM 42.3353 -71.0217 14° North 153 176 500 4,860 Descending Boston Center
Fri 07:29:17 PM 42.3872 -71.0008 17° North 153 176 11,000 5,339 Climbing Boston Center
Fri 07:30:15 PM 42.4286 -70.9858 15° North 153 176 11,000  Level Boston Center
Fri 07:31:18 PM 42.4700 -70.9708 15° North 153 176 11,000  Level Boston Center

Login

Don't have an account? Register now (free) for customized features, flight alerts, and more!